KJFK

John F Kennedy International Airport

New York, New York, USA
METAR KJFK 212251Z 11013KT 10SM SCT013 BKN028 BKN160 BKN250 22/21 A2998 RMK AO2 SLP151 T02220206
Observed Flight Rules
Aug-21 @ 22:51 UTC (55 minutes ago) Marginal Visual Flight Rules
Wind Visibility Clouds
110° at 13 knots 10 miles
  • Scattered at 1,300' AGL
  • Broken at 2,800' AGL
  • Broken at 16,000' AGL
  • Broken at 25,000' AGL
Temperatures Readings
Current 22°C / 72°F
Dewpoint 21°C / 70°F
Humidity 94%
Altimeter 29.98" Hg
Pressure 1015.1 hPa
Elevation 9
METAR KJFK 212251Z 11013KT 10SM SCT013 BKN028 BKN160 BKN250 22/21 A2998 RMK AO2 SLP151 T02220206
Observed Flight Rules
Aug-21 @ 22:51 UTC
(55 minutes ago)
MVFR
Wind Visibility
110° at 13 knots 10 miles
Clouds
  • Scattered at 1,300' AGL
  • Broken at 2,800' AGL
  • Broken at 16,000' AGL
  • Broken at 25,000' AGL
Temperature Dewpoint
22°C / 72°F 21°C / 70°F
Humidity Altimeter Pressure
94% 29.98" Hg 1015.1 hPa